createdAt,value
2018-09-19T00:00:15.970Z,23.19
2018-09-19T00:02:41.909Z,23.20
2018-09-19T00:05:07.872Z,23.19
2018-09-19T00:07:33.813Z,23.20
2018-09-19T00:09:59.771Z,23.21
2018-09-19T00:12:25.744Z,23.18
2018-09-19T00:14:51.687Z,23.17
2018-09-19T00:17:18.455Z,23.16
2018-09-19T00:19:44.399Z,23.16
2018-09-19T00:22:10.363Z,23.16
2018-09-19T00:24:36.321Z,23.16
2018-09-19T00:27:02.280Z,23.15
2018-09-19T00:29:28.220Z,23.15
2018-09-19T00:31:54.225Z,23.17
2018-09-19T00:34:20.234Z,23.15
2018-09-19T00:36:46.189Z,23.16
2018-09-19T00:39:12.167Z,23.15
2018-09-19T00:41:38.125Z,23.14
2018-09-19T00:44:04.110Z,23.14
2018-09-19T00:46:30.060Z,23.14
2018-09-19T00:48:56.040Z,23.13
2018-09-19T00:51:21.982Z,23.13
2018-09-19T00:53:47.929Z,23.14
2018-09-19T00:56:13.919Z,23.13
2018-09-19T00:58:39.856Z,23.13
2018-09-19T01:01:05.839Z,23.12
2018-09-19T01:03:31.788Z,23.11
2018-09-19T01:05:57.756Z,23.10
2018-09-19T01:08:23.687Z,23.10
2018-09-19T01:10:49.792Z,23.09
2018-09-19T01:13:15.761Z,23.10
2018-09-19T01:15:41.729Z,23.09
2018-09-19T01:18:07.712Z,23.09
2018-09-19T01:20:33.664Z,23.09
2018-09-19T01:22:59.643Z,23.09
2018-09-19T01:25:25.571Z,23.08
2018-09-19T01:27:51.539Z,23.08
2018-09-19T01:30:17.499Z,23.09
2018-09-19T01:32:43.451Z,23.09
2018-09-19T01:35:09.508Z,23.07
2018-09-19T01:37:35.478Z,23.06
2018-09-19T01:40:01.591Z,23.06
2018-09-19T01:42:27.549Z,23.07
2018-09-19T01:44:53.488Z,23.08
2018-09-19T01:47:19.460Z,23.06
2018-09-19T01:49:45.422Z,23.05
2018-09-19T01:52:11.376Z,23.04
2018-09-19T01:54:37.369Z,23.02
2018-09-19T01:57:03.320Z,23.02
2018-09-19T01:59:29.291Z,23.03
2018-09-19T02:01:55.233Z,22.99
2018-09-19T02:04:21.169Z,23.02
2018-09-19T02:06:47.161Z,23.02
2018-09-19T02:09:13.193Z,23.01
2018-09-19T02:11:39.151Z,23.00
2018-09-19T02:14:05.096Z,23.00
2018-09-19T02:16:31.042Z,22.99
2018-09-19T02:18:56.992Z,22.98
2018-09-19T02:21:22.952Z,22.96
2018-09-19T02:23:48.888Z,22.97
2018-09-19T02:26:14.893Z,22.96
2018-09-19T02:28:40.924Z,22.98
2018-09-19T02:31:06.778Z,22.99
2018-09-19T02:33:32.720Z,23.01
2018-09-19T02:35:58.770Z,23.02
2018-09-19T02:38:24.741Z,23.00
2018-09-19T02:40:50.695Z,22.99
2018-09-19T02:43:16.668Z,22.96
2018-09-19T02:45:42.712Z,22.94
2018-09-19T02:48:08.670Z,22.95
2018-09-19T02:50:34.636Z,22.95
2018-09-19T02:53:00.577Z,22.94
2018-09-19T02:55:26.549Z,22.94
2018-09-19T02:57:52.578Z,22.94
2018-09-19T03:00:18.545Z,22.94
2018-09-19T03:02:44.501Z,22.93
2018-09-19T03:05:10.453Z,22.92
2018-09-19T03:07:36.400Z,22.93
2018-09-19T03:10:02.396Z,22.95
2018-09-19T03:12:28.327Z,22.93
2018-09-19T03:14:54.279Z,22.94
2018-09-19T03:17:20.302Z,22.95
2018-09-19T03:19:46.221Z,22.95
2018-09-19T03:22:12.233Z,22.94
2018-09-19T03:24:38.187Z,22.93
2018-09-19T03:27:04.151Z,22.92
2018-09-19T03:29:30.101Z,22.92
2018-09-19T03:31:56.062Z,22.90
2018-09-19T03:34:22.002Z,22.89
2018-09-19T03:36:48.048Z,22.90
2018-09-19T03:39:14.020Z,22.89
2018-09-19T03:41:39.963Z,22.89
2018-09-19T03:44:06.130Z,22.89
2018-09-19T03:46:32.083Z,22.88
2018-09-19T03:48:58.036Z,22.87
2018-09-19T03:51:24.046Z,22.87
2018-09-19T03:53:49.998Z,22.87
2018-09-19T03:56:15.954Z,22.87
2018-09-19T03:58:41.893Z,22.88
2018-09-19T04:01:07.835Z,22.89
2018-09-19T04:03:33.787Z,22.89
2018-09-19T04:05:59.784Z,22.88
2018-09-19T04:08:25.860Z,22.88
2018-09-19T04:10:51.822Z,22.90
2018-09-19T04:13:17.762Z,22.87
2018-09-19T04:15:43.746Z,22.87
2018-09-19T04:18:09.691Z,22.87
2018-09-19T04:20:35.660Z,22.87
2018-09-19T04:23:01.607Z,22.87
2018-09-19T04:25:27.563Z,22.87
2018-09-19T04:27:53.540Z,22.84
2018-09-19T04:30:19.497Z,22.85
2018-09-19T04:32:45.485Z,22.84
2018-09-19T04:35:11.442Z,22.85
2018-09-19T04:37:37.404Z,22.85
2018-09-19T04:40:03.362Z,22.86
2018-09-19T04:42:29.309Z,22.84
2018-09-19T04:44:55.277Z,22.84
2018-09-19T04:47:21.221Z,22.85
2018-09-19T04:49:47.180Z,22.84
2018-09-19T04:52:13.139Z,22.86
2018-09-19T04:54:39.084Z,22.85
2018-09-19T04:57:05.031Z,22.84
2018-09-19T04:59:30.986Z,22.82
2018-09-19T05:01:56.939Z,22.81
2018-09-19T05:04:22.905Z,22.81
2018-09-19T05:06:48.856Z,22.80
2018-09-19T05:09:14.886Z,22.79
2018-09-19T05:11:40.845Z,22.81
2018-09-19T05:14:06.809Z,22.80
2018-09-19T05:16:32.755Z,22.79
2018-09-19T05:18:58.707Z,22.80
2018-09-19T05:21:24.663Z,22.81
2018-09-19T05:23:50.790Z,22.80
2018-09-19T05:26:16.740Z,22.79
2018-09-19T05:28:42.707Z,22.80
2018-09-19T05:31:08.703Z,22.78
2018-09-19T05:33:34.644Z,22.79
2018-09-19T05:36:00.591Z,22.82
2018-09-19T05:38:26.545Z,22.79
2018-09-19T05:40:52.507Z,22.80
2018-09-19T05:43:18.468Z,22.79
2018-09-19T05:45:44.448Z,22.80
2018-09-19T05:48:10.419Z,22.79
2018-09-19T05:50:36.367Z,22.80
2018-09-19T05:53:02.354Z,22.77
2018-09-19T05:55:28.429Z,22.79
2018-09-19T05:57:54.403Z,22.80
2018-09-19T06:00:20.372Z,22.77
2018-09-19T06:02:46.322Z,22.79
2018-09-19T06:05:12.295Z,22.80
2018-09-19T06:07:38.241Z,22.79
2018-09-19T06:10:04.196Z,22.82
2018-09-19T06:12:30.145Z,22.82
2018-09-19T06:14:56.197Z,22.85
2018-09-19T06:17:22.383Z,22.84
2018-09-19T06:19:48.389Z,22.85
2018-09-19T06:22:14.422Z,22.84
2018-09-19T06:24:40.421Z,22.83
2018-09-19T06:27:06.630Z,22.82
2018-09-19T06:29:32.633Z,22.82
2018-09-19T06:31:58.571Z,22.82
2018-09-19T06:34:24.528Z,22.85
2018-09-19T06:36:50.582Z,22.83
2018-09-19T06:39:16.531Z,22.83
2018-09-19T06:41:42.489Z,22.84
2018-09-19T06:44:08.441Z,22.85
2018-09-19T06:46:34.422Z,22.86
2018-09-19T06:49:00.361Z,22.89
2018-09-19T06:51:26.326Z,22.90
2018-09-19T06:53:52.271Z,22.90
2018-09-19T06:56:18.231Z,22.93
2018-09-19T06:58:44.272Z,22.94
2018-09-19T07:01:10.211Z,22.93
2018-09-19T07:03:36.151Z,22.92
2018-09-19T07:06:02.152Z,22.97
2018-09-19T07:08:28.098Z,22.96
2018-09-19T07:10:54.074Z,22.97
2018-09-19T07:13:20.019Z,23.00
2018-09-19T07:15:45.996Z,22.99
2018-09-19T07:18:11.955Z,22.97
2018-09-19T07:20:37.911Z,22.98
2018-09-19T07:23:03.873Z,22.99
2018-09-19T07:25:29.837Z,23.02
2018-09-19T07:27:55.805Z,23.01
2018-09-19T07:30:21.755Z,23.01
2018-09-19T07:32:47.824Z,23.01
2018-09-19T07:35:13.825Z,23.01
2018-09-19T07:37:39.777Z,23.00
2018-09-19T07:40:05.809Z,23.00
2018-09-19T07:42:31.929Z,23.00
2018-09-19T07:44:57.871Z,23.01
2018-09-19T07:47:23.820Z,23.02
2018-09-19T07:49:49.789Z,23.02
2018-09-19T07:52:15.764Z,23.00
2018-09-19T07:54:41.736Z,23.02
2018-09-19T07:57:07.656Z,23.02
2018-09-19T07:59:33.635Z,23.03
2018-09-19T08:01:59.594Z,23.02
2018-09-19T08:04:25.540Z,23.04
2018-09-19T08:06:51.523Z,23.05
2018-09-19T08:09:17.532Z,23.04
2018-09-19T08:11:43.540Z,23.03
2018-09-19T08:14:09.509Z,23.04
2018-09-19T08:16:35.451Z,23.05
2018-09-19T08:19:01.392Z,23.07
2018-09-19T08:21:27.374Z,23.09
2018-09-19T08:23:53.315Z,23.07
2018-09-19T08:26:19.287Z,23.08
2018-09-19T08:28:45.236Z,23.07
2018-09-19T08:31:11.172Z,23.08
2018-09-19T08:33:37.132Z,23.10
2018-09-19T08:38:28.893Z,23.10
2018-09-19T08:40:54.849Z,23.12
2018-09-19T08:43:20.899Z,23.11
2018-09-19T08:45:47.162Z,23.11
2018-09-19T08:48:13.213Z,23.13
2018-09-19T08:50:39.183Z,23.12
2018-09-19T08:53:05.117Z,23.14
2018-09-19T08:55:31.189Z,23.15
2018-09-19T08:57:57.152Z,23.16
2018-09-19T09:00:23.215Z,23.16
2018-09-19T09:02:49.225Z,23.16
2018-09-19T09:05:15.289Z,23.18
2018-09-19T09:07:41.232Z,23.18
2018-09-19T09:10:07.200Z,23.18
2018-09-19T09:12:33.342Z,23.18
2018-09-19T09:14:59.248Z,23.18
2018-09-19T09:17:25.206Z,23.19
2018-09-19T09:19:51.271Z,23.24
2018-09-19T09:22:17.267Z,23.23
2018-09-19T09:24:43.237Z,23.26
2018-09-19T09:27:09.378Z,23.26
2018-09-19T09:29:35.309Z,23.25
2018-09-19T09:32:01.263Z,23.26
2018-09-19T09:34:27.309Z,23.27
2018-09-19T09:36:53.347Z,23.26
2018-09-19T09:39:19.374Z,23.25
2018-09-19T09:41:45.392Z,23.26
2018-09-19T09:44:11.437Z,23.27
2018-09-19T09:46:37.464Z,23.28
2018-09-19T09:49:03.470Z,23.27
2018-09-19T09:51:29.513Z,23.29
2018-09-19T09:53:55.503Z,23.30
2018-09-19T09:56:21.465Z,23.32
2018-09-19T09:58:47.496Z,23.30
2018-09-19T10:01:13.456Z,23.34
2018-09-19T10:03:39.465Z,23.33
2018-09-19T10:06:05.478Z,23.32
2018-09-19T10:08:31.427Z,23.34
2018-09-19T10:10:57.614Z,23.35
2018-09-19T10:13:23.684Z,23.32
2018-09-19T10:15:49.704Z,23.33
2018-09-19T10:18:15.750Z,23.32
2018-09-19T10:20:41.699Z,23.34
2018-09-19T10:23:07.688Z,23.35
2018-09-19T10:25:33.716Z,23.33
2018-09-19T10:27:59.740Z,23.35
2018-09-19T10:30:25.779Z,23.35
2018-09-19T10:32:51.803Z,23.34
2018-09-19T10:35:17.845Z,23.37
2018-09-19T10:37:43.787Z,23.37
2018-09-19T10:40:09.796Z,23.36
2018-09-19T10:42:35.819Z,23.37
2018-09-19T10:45:01.843Z,23.39
2018-09-19T10:47:27.987Z,23.38
2018-09-19T10:49:53.943Z,23.39
2018-09-19T10:52:19.930Z,23.39
2018-09-19T10:54:45.865Z,23.36
2018-09-19T10:57:11.899Z,23.38
2018-09-19T10:59:37.917Z,23.39
2018-09-19T11:02:03.873Z,23.39
2018-09-19T11:04:29.817Z,23.38
2018-09-19T11:06:55.778Z,23.38
2018-09-19T11:09:21.727Z,23.36
2018-09-19T11:11:47.688Z,23.38
2018-09-19T11:14:13.648Z,23.38
2018-09-19T11:16:39.607Z,23.38
2018-09-19T11:19:05.563Z,23.38
2018-09-19T11:21:31.567Z,23.38
2018-09-19T11:23:57.515Z,23.40
2018-09-19T11:26:23.529Z,23.38
2018-09-19T11:28:49.423Z,23.41
2018-09-19T11:31:15.360Z,23.40
2018-09-19T11:33:41.327Z,23.39
2018-09-19T11:36:07.265Z,23.45
2018-09-19T11:38:33.211Z,23.44
2018-09-19T11:40:59.156Z,23.47
2018-09-19T11:43:25.165Z,23.46
2018-09-19T11:45:51.092Z,23.46
2018-09-19T11:48:17.037Z,23.47
2018-09-19T11:50:43.011Z,23.47
2018-09-19T11:53:08.969Z,23.47
2018-09-19T11:55:34.925Z,23.48
2018-09-19T11:58:01.033Z,23.48
2018-09-19T12:00:26.948Z,23.48
2018-09-19T12:02:53.127Z,23.51
2018-09-19T12:05:19.074Z,23.51
2018-09-19T12:07:45.044Z,23.52
2018-09-19T12:10:11.071Z,23.53
2018-09-19T12:12:37.029Z,23.50
2018-09-19T12:15:02.974Z,23.52
2018-09-19T12:17:28.918Z,23.50
2018-09-19T12:19:54.884Z,23.50
2018-09-19T12:22:20.984Z,23.50
2018-09-19T12:24:46.940Z,23.50
2018-09-19T12:27:12.916Z,23.50
2018-09-19T12:29:38.898Z,23.52
2018-09-19T12:32:04.853Z,23.51
2018-09-19T12:34:30.824Z,23.49
2018-09-19T12:36:56.852Z,23.51
2018-09-19T12:39:22.808Z,23.52
2018-09-19T12:41:48.781Z,23.53
2018-09-19T12:44:14.760Z,23.56
2018-09-19T12:46:40.743Z,23.58
2018-09-19T12:49:06.813Z,23.56
2018-09-19T12:51:32.725Z,23.54
2018-09-19T12:53:58.750Z,23.57
2018-09-19T12:56:24.703Z,23.54
2018-09-19T12:58:50.653Z,23.53
2018-09-19T13:01:16.605Z,23.53
2018-09-19T13:03:42.560Z,23.51
2018-09-19T13:06:08.517Z,23.52
2018-09-19T13:08:34.565Z,23.55
2018-09-19T13:11:00.486Z,23.53
2018-09-19T13:13:26.453Z,23.54
2018-09-19T13:15:52.385Z,23.52
2018-09-19T13:18:18.337Z,23.53
2018-09-19T13:20:44.294Z,23.56
2018-09-19T13:23:10.362Z,23.56
2018-09-19T13:25:36.385Z,23.57
2018-09-19T13:28:02.435Z,23.60
2018-09-19T13:30:28.388Z,23.61
2018-09-19T13:32:54.369Z,23.60
2018-09-19T13:35:20.324Z,23.58
2018-09-19T13:37:46.276Z,23.59
2018-09-19T13:40:12.253Z,23.60
2018-09-19T13:42:38.190Z,23.58
2018-09-19T13:45:04.178Z,23.56
2018-09-19T13:47:30.180Z,23.56
2018-09-19T13:49:56.120Z,23.54
2018-09-19T13:52:22.080Z,23.55
2018-09-19T13:54:48.153Z,23.55
2018-09-19T13:57:14.506Z,23.57
2018-09-19T13:59:40.480Z,23.57
2018-09-19T14:02:06.452Z,23.58
2018-09-19T14:04:32.392Z,23.61
2018-09-19T14:06:58.472Z,23.63
2018-09-19T14:09:24.432Z,23.63
2018-09-19T14:11:50.484Z,23.65
2018-09-19T14:14:16.388Z,23.63
2018-09-19T14:16:42.391Z,23.63
2018-09-19T14:19:08.336Z,23.63
2018-09-19T14:21:34.299Z,23.63
2018-09-19T14:24:00.238Z,23.63
2018-09-19T14:26:26.299Z,23.63
2018-09-19T14:28:52.241Z,23.62
2018-09-19T14:31:18.180Z,23.59
2018-09-19T14:33:44.196Z,23.59
2018-09-19T14:36:10.211Z,23.57
2018-09-19T14:38:36.171Z,23.54
2018-09-19T14:41:02.148Z,23.54
2018-09-19T14:43:28.108Z,23.53
2018-09-19T14:45:54.062Z,23.54
2018-09-19T14:48:20.033Z,23.54
2018-09-19T14:50:45.957Z,23.54
2018-09-19T14:53:11.900Z,23.57
2018-09-19T14:55:37.887Z,23.56
2018-09-19T14:58:03.832Z,23.57
2018-09-19T15:00:29.860Z,23.56
2018-09-19T15:02:55.816Z,23.56
2018-09-19T15:05:21.761Z,23.56
2018-09-19T15:07:47.762Z,23.53
2018-09-19T15:10:13.704Z,23.55
2018-09-19T15:12:39.651Z,23.54
2018-09-19T15:15:05.643Z,23.53
2018-09-19T15:17:31.715Z,23.54
2018-09-19T15:19:57.712Z,23.53
2018-09-19T15:22:23.755Z,23.52
2018-09-19T15:24:49.880Z,23.53
2018-09-19T15:27:15.899Z,23.54
2018-09-19T15:29:41.849Z,23.52
2018-09-19T15:32:07.820Z,23.56
2018-09-19T15:34:33.759Z,23.58
2018-09-19T15:36:59.806Z,23.59
2018-09-19T15:39:25.759Z,23.59
2018-09-19T15:41:51.891Z,23.60
2018-09-19T15:44:18.010Z,23.59
2018-09-19T15:46:43.924Z,23.59
2018-09-19T15:49:09.879Z,23.63
2018-09-19T15:51:35.827Z,23.62
2018-09-19T15:54:01.779Z,23.60
2018-09-19T15:56:27.849Z,23.60
2018-09-19T15:58:53.809Z,23.57
2018-09-19T16:01:19.765Z,23.57
2018-09-19T16:03:45.739Z,23.56
2018-09-19T16:06:11.756Z,23.56
2018-09-19T16:08:37.633Z,23.56
2018-09-19T16:11:03.579Z,23.55
2018-09-19T16:13:29.568Z,23.57
2018-09-19T16:15:55.532Z,23.57
2018-09-19T16:18:21.492Z,23.56
2018-09-19T16:20:47.467Z,23.57
2018-09-19T16:23:13.442Z,23.58
2018-09-19T16:25:39.427Z,23.58
2018-09-19T16:28:05.372Z,23.58
2018-09-19T16:30:31.426Z,23.57
2018-09-19T16:32:57.398Z,23.55
2018-09-19T16:35:23.388Z,23.56
2018-09-19T16:37:49.336Z,23.56
2018-09-19T16:40:15.314Z,23.57
2018-09-19T16:42:41.417Z,23.59
2018-09-19T16:45:07.399Z,23.54
2018-09-19T16:47:33.355Z,23.52
2018-09-19T16:49:59.435Z,23.56
2018-09-19T16:52:25.402Z,23.57
2018-09-19T16:54:51.373Z,23.57
2018-09-19T16:57:17.364Z,23.59
2018-09-19T16:59:43.316Z,23.58
2018-09-19T17:02:09.304Z,23.57
2018-09-19T17:04:35.264Z,23.58
2018-09-19T17:07:01.222Z,23.58
2018-09-19T17:09:27.200Z,23.58
2018-09-19T17:11:53.145Z,23.56
2018-09-19T17:14:19.103Z,23.58
2018-09-19T17:16:45.060Z,23.56
2018-09-19T17:19:11.033Z,23.54
2018-09-19T17:21:37.072Z,23.56
2018-09-19T17:24:03.025Z,23.55
2018-09-19T17:26:29.046Z,23.53
2018-09-19T17:28:55.026Z,23.55
2018-09-19T17:31:20.975Z,23.53
2018-09-19T17:33:46.930Z,23.54
2018-09-19T17:36:12.962Z,23.56
2018-09-19T17:38:38.908Z,23.58
2018-09-19T17:41:04.939Z,23.58
2018-09-19T17:43:31.195Z,23.59
2018-09-19T17:45:57.156Z,23.59
2018-09-19T17:48:23.120Z,23.60
2018-09-19T17:50:49.087Z,23.59
2018-09-19T17:53:15.040Z,23.58
2018-09-19T17:55:41.011Z,23.57
2018-09-19T17:58:06.946Z,23.56
2018-09-19T18:00:33.095Z,23.56
2018-09-19T18:02:59.161Z,23.58
2018-09-19T18:05:25.140Z,23.58
2018-09-19T18:07:51.168Z,23.57
2018-09-19T18:10:17.149Z,23.57
2018-09-19T18:12:43.130Z,23.57
2018-09-19T18:15:09.089Z,23.55
2018-09-19T18:17:35.068Z,23.54
2018-09-19T18:20:01.009Z,23.57
2018-09-19T18:22:27.025Z,23.59
2018-09-19T18:24:53.166Z,23.59
2018-09-19T18:27:19.144Z,23.59
2018-09-19T18:29:45.113Z,23.59
2018-09-19T18:32:11.076Z,23.60
2018-09-19T18:34:37.044Z,23.62
2018-09-19T18:37:03.000Z,23.59
2018-09-19T18:39:28.963Z,23.59
2018-09-19T18:41:55.020Z,23.57
2018-09-19T18:44:20.992Z,23.58
2018-09-19T18:46:46.944Z,23.59
2018-09-19T18:49:13.093Z,23.59
2018-09-19T18:51:39.045Z,23.60
2018-09-19T18:54:05.003Z,23.58
2018-09-19T18:56:30.957Z,23.58
2018-09-19T18:58:56.969Z,23.57
2018-09-19T19:01:22.976Z,23.56
2018-09-19T19:03:49.021Z,23.57
2018-09-19T19:06:15.545Z,23.58
2018-09-19T19:08:41.606Z,23.58
2018-09-19T19:11:07.681Z,23.60
2018-09-19T19:13:33.743Z,23.60
2018-09-19T19:15:59.724Z,23.60
2018-09-19T19:18:25.713Z,23.58
2018-09-19T19:20:51.672Z,23.58
2018-09-19T19:23:17.638Z,23.57
2018-09-19T19:25:43.584Z,23.56
2018-09-19T19:28:09.580Z,23.56
2018-09-19T19:30:35.699Z,23.55
2018-09-19T19:33:01.545Z,23.56
2018-09-19T19:35:27.499Z,23.55
2018-09-19T19:37:53.507Z,23.54
2018-09-19T19:40:19.624Z,23.54
2018-09-19T19:42:45.571Z,23.51
2018-09-19T19:45:11.555Z,23.51
2018-09-19T19:47:37.557Z,23.52
2018-09-19T19:50:03.520Z,23.53
2018-09-19T19:52:29.491Z,23.52
2018-09-19T19:54:55.492Z,23.54
2018-09-19T19:57:21.442Z,23.53
2018-09-19T19:59:47.444Z,23.53
2018-09-19T20:02:13.419Z,23.53
2018-09-19T20:04:39.479Z,23.52
2018-09-19T20:07:05.490Z,23.51
2018-09-19T20:09:31.516Z,23.50
2018-09-19T20:11:57.551Z,23.50
2018-09-19T20:14:23.500Z,23.50
2018-09-19T20:16:49.480Z,23.51
2018-09-19T20:19:15.589Z,23.50
2018-09-19T20:21:41.544Z,23.48
2018-09-19T20:24:07.502Z,23.48
2018-09-19T20:26:33.486Z,23.48
2018-09-19T20:28:59.513Z,23.48
2018-09-19T20:31:25.567Z,23.49
2018-09-19T20:33:51.492Z,23.49
2018-09-19T20:36:17.481Z,23.51
2018-09-19T20:38:43.589Z,23.49
2018-09-19T20:41:09.574Z,23.48
2018-09-19T20:43:35.526Z,23.49
2018-09-19T20:46:01.569Z,23.47
2018-09-19T20:48:27.581Z,23.47
2018-09-19T20:50:53.528Z,23.47
2018-09-19T20:53:19.479Z,23.45
2018-09-19T20:55:45.479Z,23.45
2018-09-19T20:58:11.428Z,23.45
2018-09-19T21:00:37.501Z,23.43
2018-09-19T21:03:03.433Z,23.43
2018-09-19T21:05:29.407Z,23.41
2018-09-19T21:07:55.592Z,23.42
2018-09-19T21:10:21.556Z,23.42
2018-09-19T21:12:47.508Z,23.43
2018-09-19T21:15:13.461Z,23.43
2018-09-19T21:17:39.539Z,23.44
2018-09-19T21:20:05.530Z,23.44
2018-09-19T21:22:31.527Z,23.43
2018-09-19T21:24:57.447Z,23.41
2018-09-19T21:27:23.413Z,23.39
2018-09-19T21:29:49.369Z,23.41
2018-09-19T21:32:15.346Z,23.39
2018-09-19T21:34:41.276Z,23.40
2018-09-19T21:37:07.223Z,23.40
2018-09-19T21:39:33.345Z,23.38
2018-09-19T21:41:59.312Z,23.38
2018-09-19T21:44:25.283Z,23.39
2018-09-19T21:46:51.229Z,23.38
2018-09-19T21:49:17.181Z,23.39
2018-09-19T21:51:43.124Z,23.39
2018-09-19T21:54:09.079Z,23.39
2018-09-19T21:56:35.038Z,23.40
2018-09-19T21:59:00.998Z,23.40
2018-09-19T22:01:26.934Z,23.38
2018-09-19T22:03:52.912Z,23.38
2018-09-19T22:06:18.869Z,23.37
2018-09-19T22:08:44.888Z,23.37
2018-09-19T22:11:10.843Z,23.36
2018-09-19T22:13:36.799Z,23.37
2018-09-19T22:16:02.847Z,23.36
2018-09-19T22:18:28.791Z,23.36
2018-09-19T22:20:54.747Z,23.35
2018-09-19T22:23:20.715Z,23.36
2018-09-19T22:25:46.676Z,23.35
2018-09-19T22:28:12.632Z,23.35
2018-09-19T22:30:38.742Z,23.35
2018-09-19T22:33:04.710Z,23.36
2018-09-19T22:35:30.668Z,23.33
2018-09-19T22:37:56.661Z,23.35
2018-09-19T22:40:22.623Z,23.35
2018-09-19T22:42:48.580Z,23.35
2018-09-19T22:45:14.912Z,23.35
2018-09-19T22:47:40.883Z,23.35
2018-09-19T22:50:06.869Z,23.32
2018-09-19T22:52:32.821Z,23.33
2018-09-19T22:54:58.765Z,23.31
2018-09-19T22:57:24.703Z,23.31
2018-09-19T22:59:50.663Z,23.30
2018-09-19T23:02:16.625Z,23.31
2018-09-19T23:04:42.567Z,23.31
2018-09-19T23:07:08.532Z,23.31
2018-09-19T23:09:34.487Z,23.31
2018-09-19T23:12:00.450Z,23.31
2018-09-19T23:14:26.392Z,23.30
2018-09-19T23:16:52.360Z,23.28
2018-09-19T23:19:18.372Z,23.29
2018-09-19T23:21:44.316Z,23.27
2018-09-19T23:24:10.262Z,23.28
2018-09-19T23:26:36.218Z,23.29
2018-09-19T23:29:02.191Z,23.29
2018-09-19T23:31:28.155Z,23.29
2018-09-19T23:33:54.110Z,23.28
2018-09-19T23:36:20.096Z,23.29
2018-09-19T23:38:46.044Z,23.28
2018-09-19T23:41:12.011Z,23.28
2018-09-19T23:43:37.988Z,23.29
2018-09-19T23:46:03.932Z,23.30
2018-09-19T23:48:29.881Z,23.28
2018-09-19T23:50:56.003Z,23.28
2018-09-19T23:53:21.964Z,23.28
2018-09-19T23:55:47.928Z,23.26
2018-09-19T23:58:13.866Z,23.26
